sensor_id;sensor_type;location;lat;lon;timestamp;P1;durP1;ratioP1;P2;durP2;ratioP2
11024;SDS011;22890;51.820;8.682;2023-06-04T00:00:44;1.23;;;0.90;;
11024;SDS011;22890;51.820;8.682;2023-06-04T00:03:11;0.90;;;0.77;;
11024;SDS011;22890;51.820;8.682;2023-06-04T00:05:38;2.97;;;0.80;;
11024;SDS011;22890;51.820;8.682;2023-06-04T00:08:05;0.90;;;0.80;;
11024;SDS011;22890;51.820;8.682;2023-06-04T00:10:33;0.90;;;0.90;;
11024;SDS011;22890;51.820;8.682;2023-06-04T00:13:00;1.30;;;1.10;;
11024;SDS011;22890;51.820;8.682;2023-06-04T00:15:27;1.33;;;1.07;;
11024;SDS011;22890;51.820;8.682;2023-06-04T00:17:54;0.83;;;0.80;;
11024;SDS011;22890;51.820;8.682;2023-06-04T00:20:23;2.70;;;1.07;;
11024;SDS011;22890;51.820;8.682;2023-06-04T00:22:50;2.20;;;0.90;;
11024;SDS011;22890;51.820;8.682;2023-06-04T00:25:17;0.70;;;0.70;;
11024;SDS011;22890;51.820;8.682;2023-06-04T00:27:44;1.27;;;0.70;;
11024;SDS011;22890;51.820;8.682;2023-06-04T00:30:12;1.87;;;1.00;;
11024;SDS011;22890;51.820;8.682;2023-06-04T00:32:39;1.40;;;1.20;;
11024;SDS011;22890;51.820;8.682;2023-06-04T00:35:06;0.87;;;0.87;;
11024;SDS011;22890;51.820;8.682;2023-06-04T00:37:35;1.50;;;1.10;;
11024;SDS011;22890;51.820;8.682;2023-06-04T00:40:02;1.70;;;0.90;;
11024;SDS011;22890;51.820;8.682;2023-06-04T00:42:31;1.13;;;0.90;;
11024;SDS011;22890;51.820;8.682;2023-06-04T00:44:58;1.10;;;0.80;;
11024;SDS011;22890;51.820;8.682;2023-06-04T00:47:26;0.83;;;0.70;;
11024;SDS011;22890;51.820;8.682;2023-06-04T00:49:54;0.83;;;0.63;;
11024;SDS011;22890;51.820;8.682;2023-06-04T00:52:23;1.03;;;0.87;;
11024;SDS011;22890;51.820;8.682;2023-06-04T00:54:51;1.40;;;0.90;;
11024;SDS011;22890;51.820;8.682;2023-06-04T00:57:18;1.10;;;0.90;;
11024;SDS011;22890;51.820;8.682;2023-06-04T00:59:45;1.40;;;0.97;;
11024;SDS011;22890;51.820;8.682;2023-06-04T01:02:13;5.40;;;1.00;;
11024;SDS011;22890;51.820;8.682;2023-06-04T01:04:45;0.83;;;0.70;;
11024;SDS011;22890;51.820;8.682;2023-06-04T01:07:13;0.60;;;0.60;;
11024;SDS011;22890;51.820;8.682;2023-06-04T01:09:41;2.90;;;0.87;;
11024;SDS011;22890;51.820;8.682;2023-06-04T01:12:09;1.17;;;1.00;;
11024;SDS011;22890;51.820;8.682;2023-06-04T01:14:37;1.10;;;0.80;;
11024;SDS011;22890;51.820;8.682;2023-06-04T01:17:15;1.13;;;1.03;;
11024;SDS011;22890;51.820;8.682;2023-06-04T01:19:49;0.80;;;0.80;;
11024;SDS011;22890;51.820;8.682;2023-06-04T01:22:29;1.37;;;0.93;;
11024;SDS011;22890;51.820;8.682;2023-06-04T01:24:59;1.60;;;0.93;;
11024;SDS011;22890;51.820;8.682;2023-06-04T01:27:28;1.10;;;1.00;;
11024;SDS011;22890;51.820;8.682;2023-06-04T01:29:56;1.23;;;0.93;;
11024;SDS011;22890;51.820;8.682;2023-06-04T01:32:24;0.80;;;0.80;;
11024;SDS011;22890;51.820;8.682;2023-06-04T01:34:51;4.43;;;1.00;;
11024;SDS011;22890;51.820;8.682;2023-06-04T01:37:19;1.80;;;1.00;;
11024;SDS011;22890;51.820;8.682;2023-06-04T01:39:46;1.50;;;1.00;;
11024;SDS011;22890;51.820;8.682;2023-06-04T01:42:13;2.37;;;0.90;;
11024;SDS011;22890;51.820;8.682;2023-06-04T01:44:40;1.00;;;0.87;;
11024;SDS011;22890;51.820;8.682;2023-06-04T01:47:07;1.13;;;0.77;;
11024;SDS011;22890;51.820;8.682;2023-06-04T01:49:35;1.20;;;1.07;;
11024;SDS011;22890;51.820;8.682;2023-06-04T01:52:04;0.77;;;0.77;;
11024;SDS011;22890;51.820;8.682;2023-06-04T01:54:31;2.17;;;1.13;;
11024;SDS011;22890;51.820;8.682;2023-06-04T01:57:00;1.73;;;0.80;;
11024;SDS011;22890;51.820;8.682;2023-06-04T01:59:27;1.80;;;1.60;;
11024;SDS011;22890;51.820;8.682;2023-06-04T02:01:54;2.00;;;0.80;;
11024;SDS011;22890;51.820;8.682;2023-06-04T02:04:21;5.03;;;0.90;;
11024;SDS011;22890;51.820;8.682;2023-06-04T02:06:50;0.70;;;0.70;;
11024;SDS011;22890;51.820;8.682;2023-06-04T02:09:17;1.33;;;1.23;;
11024;SDS011;22890;51.820;8.682;2023-06-04T02:11:44;0.97;;;0.93;;
11024;SDS011;22890;51.820;8.682;2023-06-04T02:14:12;1.57;;;1.00;;
11024;SDS011;22890;51.820;8.682;2023-06-04T02:16:39;1.13;;;1.03;;
11024;SDS011;22890;51.820;8.682;2023-06-04T02:19:06;1.10;;;0.83;;
11024;SDS011;22890;51.820;8.682;2023-06-04T02:21:33;1.20;;;1.03;;
11024;SDS011;22890;51.820;8.682;2023-06-04T02:24:02;1.00;;;0.90;;
11024;SDS011;22890;51.820;8.682;2023-06-04T02:26:29;0.90;;;0.70;;
11024;SDS011;22890;51.820;8.682;2023-06-04T02:28:56;1.97;;;1.00;;
11024;SDS011;22890;51.820;8.682;2023-06-04T02:31:24;1.37;;;1.10;;
11024;SDS011;22890;51.820;8.682;2023-06-04T02:33:51;3.70;;;0.80;;
11024;SDS011;22890;51.820;8.682;2023-06-04T02:36:18;1.30;;;0.80;;
11024;SDS011;22890;51.820;8.682;2023-06-04T02:38:46;1.53;;;1.30;;
11024;SDS011;22890;51.820;8.682;2023-06-04T02:41:13;1.20;;;0.90;;
11024;SDS011;22890;51.820;8.682;2023-06-04T02:43:40;1.13;;;1.03;;
11024;SDS011;22890;51.820;8.682;2023-06-04T02:46:07;2.87;;;1.00;;
11024;SDS011;22890;51.820;8.682;2023-06-04T02:48:35;0.93;;;0.93;;
11024;SDS011;22890;51.820;8.682;2023-06-04T02:51:02;3.50;;;1.10;;
11024;SDS011;22890;51.820;8.682;2023-06-04T02:53:29;1.63;;;1.17;;
11024;SDS011;22890;51.820;8.682;2023-06-04T02:55:57;1.13;;;1.03;;
11024;SDS011;22890;51.820;8.682;2023-06-04T02:58:24;1.93;;;1.37;;
11024;SDS011;22890;51.820;8.682;2023-06-04T03:00:52;1.10;;;1.00;;
11024;SDS011;22890;51.820;8.682;2023-06-04T03:03:19;2.80;;;1.00;;
11024;SDS011;22890;51.820;8.682;2023-06-04T03:05:46;2.30;;;1.47;;
11024;SDS011;22890;51.820;8.682;2023-06-04T03:08:14;1.10;;;1.00;;
11024;SDS011;22890;51.820;8.682;2023-06-04T03:10:41;2.17;;;1.10;;
11024;SDS011;22890;51.820;8.682;2023-06-04T03:13:08;2.03;;;1.30;;
11024;SDS011;22890;51.820;8.682;2023-06-04T03:15:36;3.27;;;1.10;;
11024;SDS011;22890;51.820;8.682;2023-06-04T03:18:05;1.23;;;1.13;;
11024;SDS011;22890;51.820;8.682;2023-06-04T03:20:32;1.60;;;0.90;;
11024;SDS011;22890;51.820;8.682;2023-06-04T03:23:01;1.23;;;1.00;;
11024;SDS011;22890;51.820;8.682;2023-06-04T03:25:28;2.37;;;1.10;;
11024;SDS011;22890;51.820;8.682;2023-06-04T03:27:56;1.33;;;0.83;;
11024;SDS011;22890;51.820;8.682;2023-06-04T03:30:23;2.20;;;1.00;;
11024;SDS011;22890;51.820;8.682;2023-06-04T03:32:59;1.50;;;1.00;;
11024;SDS011;22890;51.820;8.682;2023-06-04T03:35:27;1.20;;;0.90;;
11024;SDS011;22890;51.820;8.682;2023-06-04T03:37:54;1.33;;;1.17;;
11024;SDS011;22890;51.820;8.682;2023-06-04T03:40:21;1.20;;;1.10;;
11024;SDS011;22890;51.820;8.682;2023-06-04T03:42:49;3.37;;;0.87;;
11024;SDS011;22890;51.820;8.682;2023-06-04T03:45:18;1.63;;;0.87;;
11024;SDS011;22890;51.820;8.682;2023-06-04T03:47:46;1.40;;;1.00;;
11024;SDS011;22890;51.820;8.682;2023-06-04T03:50:13;3.00;;;0.90;;
11024;SDS011;22890;51.820;8.682;2023-06-04T03:52:41;2.07;;;1.00;;
11024;SDS011;22890;51.820;8.682;2023-06-04T03:55:08;1.80;;;1.00;;
11024;SDS011;22890;51.820;8.682;2023-06-04T03:57:38;2.63;;;0.90;;
11024;SDS011;22890;51.820;8.682;2023-06-04T04:00:06;1.17;;;0.87;;
11024;SDS011;22890;51.820;8.682;2023-06-04T04:02:41;1.30;;;1.13;;
11024;SDS011;22890;51.820;8.682;2023-06-04T04:05:17;0.93;;;0.80;;
11024;SDS011;22890;51.820;8.682;2023-06-04T04:07:47;1.33;;;1.17;;
11024;SDS011;22890;51.820;8.682;2023-06-04T04:10:17;1.20;;;1.10;;
11024;SDS011;22890;51.820;8.682;2023-06-04T04:12:45;1.27;;;0.77;;
11024;SDS011;22890;51.820;8.682;2023-06-04T04:15:13;1.80;;;1.00;;
11024;SDS011;22890;51.820;8.682;2023-06-04T04:17:42;1.50;;;1.30;;
11024;SDS011;22890;51.820;8.682;2023-06-04T04:20:09;0.90;;;0.80;;
11024;SDS011;22890;51.820;8.682;2023-06-04T04:22:43;1.53;;;1.23;;
11024;SDS011;22890;51.820;8.682;2023-06-04T04:25:11;2.10;;;1.07;;
11024;SDS011;22890;51.820;8.682;2023-06-04T04:27:39;2.47;;;1.20;;
11024;SDS011;22890;51.820;8.682;2023-06-04T04:30:10;3.03;;;1.17;;
11024;SDS011;22890;51.820;8.682;2023-06-04T04:32:41;1.00;;;0.90;;
11024;SDS011;22890;51.820;8.682;2023-06-04T04:35:17;2.20;;;1.07;;
11024;SDS011;22890;51.820;8.682;2023-06-04T04:37:46;1.63;;;1.13;;
11024;SDS011;22890;51.820;8.682;2023-06-04T04:40:16;1.47;;;1.20;;
11024;SDS011;22890;51.820;8.682;2023-06-04T04:42:47;0.97;;;0.87;;
11024;SDS011;22890;51.820;8.682;2023-06-04T04:45:15;1.23;;;1.00;;
11024;SDS011;22890;51.820;8.682;2023-06-04T04:47:44;2.43;;;1.10;;
11024;SDS011;22890;51.820;8.682;2023-06-04T04:50:13;3.33;;;1.43;;
11024;SDS011;22890;51.820;8.682;2023-06-04T04:52:40;0.90;;;0.70;;
11024;SDS011;22890;51.820;8.682;2023-06-04T04:55:07;1.17;;;1.00;;
11024;SDS011;22890;51.820;8.682;2023-06-04T04:57:35;1.10;;;1.00;;
11024;SDS011;22890;51.820;8.682;2023-06-04T05:00:03;2.27;;;1.37;;
11024;SDS011;22890;51.820;8.682;2023-06-04T05:02:39;1.50;;;1.40;;
11024;SDS011;22890;51.820;8.682;2023-06-04T05:05:08;1.83;;;1.20;;
11024;SDS011;22890;51.820;8.682;2023-06-04T05:07:37;1.07;;;0.97;;
11024;SDS011;22890;51.820;8.682;2023-06-04T05:10:05;1.30;;;1.20;;
11024;SDS011;22890;51.820;8.682;2023-06-04T05:12:33;2.83;;;1.33;;
11024;SDS011;22890;51.820;8.682;2023-06-04T05:15:02;2.90;;;1.10;;
11024;SDS011;22890;51.820;8.682;2023-06-04T05:17:29;1.67;;;1.57;;
11024;SDS011;22890;51.820;8.682;2023-06-04T05:20:02;1.97;;;1.70;;
11024;SDS011;22890;51.820;8.682;2023-06-04T05:22:34;1.80;;;1.60;;
11024;SDS011;22890;51.820;8.682;2023-06-04T05:25:03;3.33;;;1.53;;
11024;SDS011;22890;51.820;8.682;2023-06-04T05:27:30;2.30;;;1.63;;
11024;SDS011;22890;51.820;8.682;2023-06-04T05:29:58;2.97;;;1.57;;
11024;SDS011;22890;51.820;8.682;2023-06-04T05:32:27;1.60;;;1.50;;
11024;SDS011;22890;51.820;8.682;2023-06-04T05:34:59;1.83;;;1.37;;
11024;SDS011;22890;51.820;8.682;2023-06-04T05:37:32;3.20;;;1.50;;
11024;SDS011;22890;51.820;8.682;2023-06-04T05:40:00;5.03;;;1.70;;
11024;SDS011;22890;51.820;8.682;2023-06-04T05:42:33;1.23;;;1.13;;
11024;SDS011;22890;51.820;8.682;2023-06-04T05:45:00;5.10;;;1.40;;
11024;SDS011;22890;51.820;8.682;2023-06-04T05:47:28;5.00;;;1.50;;
11024;SDS011;22890;51.820;8.682;2023-06-04T05:49:57;3.10;;;1.67;;
11024;SDS011;22890;51.820;8.682;2023-06-04T05:52:24;1.60;;;1.40;;
11024;SDS011;22890;51.820;8.682;2023-06-04T05:54:51;5.57;;;1.47;;
11024;SDS011;22890;51.820;8.682;2023-06-04T05:57:19;1.57;;;1.33;;
11024;SDS011;22890;51.820;8.682;2023-06-04T05:59:47;1.43;;;1.33;;
11024;SDS011;22890;51.820;8.682;2023-06-04T06:02:16;2.20;;;1.50;;
11024;SDS011;22890;51.820;8.682;2023-06-04T06:04:44;1.50;;;1.30;;
11024;SDS011;22890;51.820;8.682;2023-06-04T06:07:11;4.27;;;1.30;;
11024;SDS011;22890;51.820;8.682;2023-06-04T06:09:38;1.70;;;1.50;;
11024;SDS011;22890;51.820;8.682;2023-06-04T06:12:05;1.77;;;1.27;;
11024;SDS011;22890;51.820;8.682;2023-06-04T06:14:35;1.50;;;1.20;;
11024;SDS011;22890;51.820;8.682;2023-06-04T06:17:02;1.73;;;1.27;;
11024;SDS011;22890;51.820;8.682;2023-06-04T06:19:30;2.00;;;1.30;;
11024;SDS011;22890;51.820;8.682;2023-06-04T06:21:57;3.77;;;1.57;;
11024;SDS011;22890;51.820;8.682;2023-06-04T06:24:26;2.63;;;1.43;;
11024;SDS011;22890;51.820;8.682;2023-06-04T06:26:53;2.93;;;1.33;;
11024;SDS011;22890;51.820;8.682;2023-06-04T06:29:21;1.47;;;1.30;;
11024;SDS011;22890;51.820;8.682;2023-06-04T06:31:49;2.73;;;1.13;;
11024;SDS011;22890;51.820;8.682;2023-06-04T06:34:17;2.13;;;1.37;;
11024;SDS011;22890;51.820;8.682;2023-06-04T06:36:44;2.70;;;1.53;;
11024;SDS011;22890;51.820;8.682;2023-06-04T06:39:11;2.10;;;1.70;;
11024;SDS011;22890;51.820;8.682;2023-06-04T06:41:38;2.70;;;1.27;;
11024;SDS011;22890;51.820;8.682;2023-06-04T06:44:11;1.77;;;1.30;;
11024;SDS011;22890;51.820;8.682;2023-06-04T06:46:38;3.70;;;1.37;;
11024;SDS011;22890;51.820;8.682;2023-06-04T06:49:05;2.20;;;1.57;;
11024;SDS011;22890;51.820;8.682;2023-06-04T06:51:32;3.23;;;1.43;;
11024;SDS011;22890;51.820;8.682;2023-06-04T06:53:59;6.43;;;1.70;;
11024;SDS011;22890;51.820;8.682;2023-06-04T06:56:27;2.37;;;1.40;;
11024;SDS011;22890;51.820;8.682;2023-06-04T06:58:54;2.17;;;1.40;;
11024;SDS011;22890;51.820;8.682;2023-06-04T07:01:21;2.40;;;1.30;;
11024;SDS011;22890;51.820;8.682;2023-06-04T07:03:48;2.37;;;1.60;;
11024;SDS011;22890;51.820;8.682;2023-06-04T07:06:16;13.40;;;1.83;;
11024;SDS011;22890;51.820;8.682;2023-06-04T07:08:43;3.23;;;1.60;;
11024;SDS011;22890;51.820;8.682;2023-06-04T07:11:10;3.30;;;1.60;;
11024;SDS011;22890;51.820;8.682;2023-06-04T07:13:38;2.73;;;1.70;;
11024;SDS011;22890;51.820;8.682;2023-06-04T07:16:05;7.80;;;1.60;;
11024;SDS011;22890;51.820;8.682;2023-06-04T07:18:32;2.13;;;1.87;;
11024;SDS011;22890;51.820;8.682;2023-06-04T07:21:00;1.50;;;1.20;;
11024;SDS011;22890;51.820;8.682;2023-06-04T07:23:27;1.40;;;1.30;;
11024;SDS011;22890;51.820;8.682;2023-06-04T07:25:55;1.40;;;1.30;;
11024;SDS011;22890;51.820;8.682;2023-06-04T07:28:22;2.13;;;1.50;;
11024;SDS011;22890;51.820;8.682;2023-06-04T07:30:50;1.67;;;1.20;;
11024;SDS011;22890;51.820;8.682;2023-06-04T07:33:17;4.97;;;1.60;;
11024;SDS011;22890;51.820;8.682;2023-06-04T07:35:44;2.30;;;1.57;;
11024;SDS011;22890;51.820;8.682;2023-06-04T07:38:11;1.50;;;1.40;;
11024;SDS011;22890;51.820;8.682;2023-06-04T07:40:39;1.57;;;1.27;;
11024;SDS011;22890;51.820;8.682;2023-06-04T07:43:06;3.17;;;1.70;;
11024;SDS011;22890;51.820;8.682;2023-06-04T07:45:33;3.63;;;1.50;;
11024;SDS011;22890;51.820;8.682;2023-06-04T07:48:01;1.97;;;1.37;;
11024;SDS011;22890;51.820;8.682;2023-06-04T07:50:29;3.73;;;1.33;;
11024;SDS011;22890;51.820;8.682;2023-06-04T07:53:01;1.90;;;1.70;;
11024;SDS011;22890;51.820;8.682;2023-06-04T07:55:28;3.87;;;1.60;;
11024;SDS011;22890;51.820;8.682;2023-06-04T07:57:55;3.97;;;1.47;;
11024;SDS011;22890;51.820;8.682;2023-06-04T08:00:22;1.40;;;1.30;;
11024;SDS011;22890;51.820;8.682;2023-06-04T08:02:51;5.07;;;1.60;;
11024;SDS011;22890;51.820;8.682;2023-06-04T08:05:19;2.33;;;1.37;;
11024;SDS011;22890;51.820;8.682;2023-06-04T08:07:46;2.67;;;1.50;;
11024;SDS011;22890;51.820;8.682;2023-06-04T08:10:13;4.10;;;1.37;;
11024;SDS011;22890;51.820;8.682;2023-06-04T08:12:41;1.80;;;1.70;;
11024;SDS011;22890;51.820;8.682;2023-06-04T08:15:08;3.33;;;1.40;;
11024;SDS011;22890;51.820;8.682;2023-06-04T08:17:37;2.73;;;1.53;;
11024;SDS011;22890;51.820;8.682;2023-06-04T08:20:04;3.43;;;1.40;;
11024;SDS011;22890;51.820;8.682;2023-06-04T08:22:38;3.53;;;1.60;;
11024;SDS011;22890;51.820;8.682;2023-06-04T08:25:05;6.03;;;1.50;;
11024;SDS011;22890;51.820;8.682;2023-06-04T08:27:32;2.97;;;1.60;;
11024;SDS011;22890;51.820;8.682;2023-06-04T08:29:59;4.53;;;2.00;;
11024;SDS011;22890;51.820;8.682;2023-06-04T08:32:26;2.23;;;2.00;;
11024;SDS011;22890;51.820;8.682;2023-06-04T08:34:54;6.17;;;1.70;;
11024;SDS011;22890;51.820;8.682;2023-06-04T08:37:21;2.73;;;2.47;;
11024;SDS011;22890;51.820;8.682;2023-06-04T08:39:50;2.93;;;2.27;;
11024;SDS011;22890;51.820;8.682;2023-06-04T08:42:22;6.80;;;2.13;;
11024;SDS011;22890;51.820;8.682;2023-06-04T08:44:53;2.33;;;1.80;;
11024;SDS011;22890;51.820;8.682;2023-06-04T08:47:21;3.87;;;2.27;;
11024;SDS011;22890;51.820;8.682;2023-06-04T08:49:49;3.47;;;1.87;;
11024;SDS011;22890;51.820;8.682;2023-06-04T08:52:17;3.07;;;2.40;;
11024;SDS011;22890;51.820;8.682;2023-06-04T08:54:48;3.10;;;2.70;;
11024;SDS011;22890;51.820;8.682;2023-06-04T08:57:18;3.30;;;2.40;;
11024;SDS011;22890;51.820;8.682;2023-06-04T08:59:45;6.37;;;2.70;;
11024;SDS011;22890;51.820;8.682;2023-06-04T09:02:13;7.13;;;3.03;;
11024;SDS011;22890;51.820;8.682;2023-06-04T09:04:41;2.10;;;1.90;;
11024;SDS011;22890;51.820;8.682;2023-06-04T09:07:08;2.90;;;1.80;;
11024;SDS011;22890;51.820;8.682;2023-06-04T09:09:39;3.73;;;2.17;;
11024;SDS011;22890;51.820;8.682;2023-06-04T09:12:27;6.73;;;2.73;;
11024;SDS011;22890;51.820;8.682;2023-06-04T09:14:53;2.73;;;2.00;;
11024;SDS011;22890;51.820;8.682;2023-06-04T09:17:21;3.17;;;2.67;;
11024;SDS011;22890;51.820;8.682;2023-06-04T09:19:49;3.00;;;2.70;;
11024;SDS011;22890;51.820;8.682;2023-06-04T09:22:17;2.40;;;2.17;;
11024;SDS011;22890;51.820;8.682;2023-06-04T09:24:45;2.40;;;1.53;;
11024;SDS011;22890;51.820;8.682;2023-06-04T09:27:16;3.00;;;2.10;;
11024;SDS011;22890;51.820;8.682;2023-06-04T09:29:53;4.33;;;2.00;;
11024;SDS011;22890;51.820;8.682;2023-06-04T09:32:24;2.27;;;1.80;;
11024;SDS011;22890;51.820;8.682;2023-06-04T09:34:55;2.10;;;1.67;;
11024;SDS011;22890;51.820;8.682;2023-06-04T09:37:23;4.97;;;1.80;;
11024;SDS011;22890;51.820;8.682;2023-06-04T09:39:54;2.00;;;1.80;;
11024;SDS011;22890;51.820;8.682;2023-06-04T09:42:24;3.70;;;1.63;;
11024;SDS011;22890;51.820;8.682;2023-06-04T09:44:51;3.03;;;1.63;;
11024;SDS011;22890;51.820;8.682;2023-06-04T09:47:18;3.27;;;1.83;;
11024;SDS011;22890;51.820;8.682;2023-06-04T09:49:46;2.27;;;1.60;;
11024;SDS011;22890;51.820;8.682;2023-06-04T09:52:14;3.90;;;1.97;;
11024;SDS011;22890;51.820;8.682;2023-06-04T09:54:41;2.50;;;1.87;;
11024;SDS011;22890;51.820;8.682;2023-06-04T09:57:18;3.33;;;2.10;;
11024;SDS011;22890;51.820;8.682;2023-06-04T09:59:48;2.03;;;1.80;;
11024;SDS011;22890;51.820;8.682;2023-06-04T10:02:18;2.70;;;2.03;;
11024;SDS011;22890;51.820;8.682;2023-06-04T10:04:53;2.20;;;2.00;;
11024;SDS011;22890;51.820;8.682;2023-06-04T10:07:23;4.07;;;2.40;;
11024;SDS011;22890;51.820;8.682;2023-06-04T10:09:51;3.53;;;2.17;;
11024;SDS011;22890;51.820;8.682;2023-06-04T10:12:22;5.07;;;2.43;;
11024;SDS011;22890;51.820;8.682;2023-06-04T10:14:56;2.53;;;2.23;;
11024;SDS011;22890;51.820;8.682;2023-06-04T10:17:25;3.40;;;2.17;;
11024;SDS011;22890;51.820;8.682;2023-06-04T10:19:54;2.77;;;1.80;;
11024;SDS011;22890;51.820;8.682;2023-06-04T10:22:23;4.20;;;2.10;;
11024;SDS011;22890;51.820;8.682;2023-06-04T10:24:50;2.77;;;2.10;;
11024;SDS011;22890;51.820;8.682;2023-06-04T10:27:18;2.80;;;2.30;;
11024;SDS011;22890;51.820;8.682;2023-06-04T10:29:46;2.20;;;2.00;;
11024;SDS011;22890;51.820;8.682;2023-06-04T10:32:14;3.93;;;2.00;;
11024;SDS011;22890;51.820;8.682;2023-06-04T10:34:41;3.77;;;2.20;;
11024;SDS011;22890;51.820;8.682;2023-06-04T10:37:21;5.07;;;2.53;;
11024;SDS011;22890;51.820;8.682;2023-06-04T10:39:55;2.70;;;2.20;;
11024;SDS011;22890;51.820;8.682;2023-06-04T10:42:23;3.03;;;2.10;;
11024;SDS011;22890;51.820;8.682;2023-06-04T10:44:52;5.27;;;2.17;;
11024;SDS011;22890;51.820;8.682;2023-06-04T10:47:26;2.30;;;2.10;;
11024;SDS011;22890;51.820;8.682;2023-06-04T10:50:06;2.20;;;2.00;;
11024;SDS011;22890;51.820;8.682;2023-06-04T10:52:35;3.13;;;2.00;;
11024;SDS011;22890;51.820;8.682;2023-06-04T10:55:03;4.90;;;1.80;;
11024;SDS011;22890;51.820;8.682;2023-06-04T10:57:31;2.50;;;1.70;;
11024;SDS011;22890;51.820;8.682;2023-06-04T10:59:59;1.87;;;1.70;;
11024;SDS011;22890;51.820;8.682;2023-06-04T11:02:26;2.73;;;1.70;;
11024;SDS011;22890;51.820;8.682;2023-06-04T11:05:03;3.00;;;1.87;;
11024;SDS011;22890;51.820;8.682;2023-06-04T11:07:43;2.50;;;1.80;;
11024;SDS011;22890;51.820;8.682;2023-06-04T11:10:12;4.07;;;1.80;;
11024;SDS011;22890;51.820;8.682;2023-06-04T11:12:43;3.53;;;1.80;;
11024;SDS011;22890;51.820;8.682;2023-06-04T11:15:14;2.07;;;1.87;;
11024;SDS011;22890;51.820;8.682;2023-06-04T11:20:22;2.00;;;1.80;;
11024;SDS011;22890;51.820;8.682;2023-06-04T11:22:53;4.80;;;2.07;;
11024;SDS011;22890;51.820;8.682;2023-06-04T11:25:25;3.73;;;2.33;;
11024;SDS011;22890;51.820;8.682;2023-06-04T11:27:53;4.63;;;1.90;;
11024;SDS011;22890;51.820;8.682;2023-06-04T11:30:21;3.07;;;1.60;;
11024;SDS011;22890;51.820;8.682;2023-06-04T11:32:48;2.53;;;1.70;;
11024;SDS011;22890;51.820;8.682;2023-06-04T11:35:16;2.00;;;1.73;;
11024;SDS011;22890;51.820;8.682;2023-06-04T11:37:52;2.27;;;1.80;;
11024;SDS011;22890;51.820;8.682;2023-06-04T11:40:21;2.10;;;1.70;;
11024;SDS011;22890;51.820;8.682;2023-06-04T11:42:48;2.97;;;1.70;;
11024;SDS011;22890;51.820;8.682;2023-06-04T11:45:17;1.53;;;1.43;;
11024;SDS011;22890;51.820;8.682;2023-06-04T11:47:46;4.17;;;1.47;;
11024;SDS011;22890;51.820;8.682;2023-06-04T11:50:14;2.13;;;1.40;;
11024;SDS011;22890;51.820;8.682;2023-06-04T11:52:42;2.80;;;1.40;;
11024;SDS011;22890;51.820;8.682;2023-06-04T11:55:10;3.30;;;1.77;;
11024;SDS011;22890;51.820;8.682;2023-06-04T11:57:38;2.03;;;1.40;;
11024;SDS011;22890;51.820;8.682;2023-06-04T12:00:07;2.90;;;1.40;;
11024;SDS011;22890;51.820;8.682;2023-06-04T12:02:36;3.77;;;1.40;;
11024;SDS011;22890;51.820;8.682;2023-06-04T12:05:10;4.37;;;1.43;;
11024;SDS011;22890;51.820;8.682;2023-06-04T12:07:42;1.93;;;1.27;;
11024;SDS011;22890;51.820;8.682;2023-06-04T12:10:09;2.43;;;1.40;;
11024;SDS011;22890;51.820;8.682;2023-06-04T12:12:38;1.90;;;1.50;;
11024;SDS011;22890;51.820;8.682;2023-06-04T12:15:07;1.63;;;1.50;;
11024;SDS011;22890;51.820;8.682;2023-06-04T12:17:36;1.30;;;1.17;;
11024;SDS011;22890;51.820;8.682;2023-06-04T12:20:03;1.53;;;1.40;;
11024;SDS011;22890;51.820;8.682;2023-06-04T12:22:32;3.90;;;1.50;;
11024;SDS011;22890;51.820;8.682;2023-06-04T12:24:59;2.03;;;1.43;;
11024;SDS011;22890;51.820;8.682;2023-06-04T12:27:29;1.77;;;1.33;;
11024;SDS011;22890;51.820;8.682;2023-06-04T12:30:03;1.77;;;1.07;;
11024;SDS011;22890;51.820;8.682;2023-06-04T12:32:34;1.57;;;1.13;;
11024;SDS011;22890;51.820;8.682;2023-06-04T12:35:02;2.33;;;1.50;;
11024;SDS011;22890;51.820;8.682;2023-06-04T12:37:29;2.07;;;1.40;;
11024;SDS011;22890;51.820;8.682;2023-06-04T12:39:56;2.53;;;1.30;;
11024;SDS011;22890;51.820;8.682;2023-06-04T12:42:23;1.13;;;1.00;;
11024;SDS011;22890;51.820;8.682;2023-06-04T12:44:50;3.43;;;1.40;;
11024;SDS011;22890;51.820;8.682;2023-06-04T12:47:17;1.23;;;0.97;;
11024;SDS011;22890;51.820;8.682;2023-06-04T12:49:46;9.33;;;1.20;;
11024;SDS011;22890;51.820;8.682;2023-06-04T12:52:13;1.20;;;1.10;;
11024;SDS011;22890;51.820;8.682;2023-06-04T12:54:41;1.90;;;1.17;;
11024;SDS011;22890;51.820;8.682;2023-06-04T12:57:09;1.83;;;1.30;;
11024;SDS011;22890;51.820;8.682;2023-06-04T12:59:36;1.70;;;1.00;;
11024;SDS011;22890;51.820;8.682;2023-06-04T13:02:03;2.30;;;0.90;;
11024;SDS011;22890;51.820;8.682;2023-06-04T13:04:30;0.97;;;0.90;;
11024;SDS011;22890;51.820;8.682;2023-06-04T13:06:57;3.10;;;0.90;;
11024;SDS011;22890;51.820;8.682;2023-06-04T13:09:26;1.53;;;1.00;;
11024;SDS011;22890;51.820;8.682;2023-06-04T13:11:58;1.40;;;1.20;;
11024;SDS011;22890;51.820;8.682;2023-06-04T13:14:25;1.40;;;1.30;;
11024;SDS011;22890;51.820;8.682;2023-06-04T13:16:52;1.60;;;1.17;;
11024;SDS011;22890;51.820;8.682;2023-06-04T13:19:19;3.13;;;1.10;;
11024;SDS011;22890;51.820;8.682;2023-06-04T13:21:47;1.27;;;0.80;;
11024;SDS011;22890;51.820;8.682;2023-06-04T13:24:14;1.00;;;0.90;;
11024;SDS011;22890;51.820;8.682;2023-06-04T13:26:42;1.60;;;1.20;;
11024;SDS011;22890;51.820;8.682;2023-06-04T13:29:09;2.87;;;1.13;;
11024;SDS011;22890;51.820;8.682;2023-06-04T13:31:36;2.70;;;1.10;;
11024;SDS011;22890;51.820;8.682;2023-06-04T13:34:05;2.03;;;1.10;;
11024;SDS011;22890;51.820;8.682;2023-06-04T13:36:51;10.83;;;1.50;;
11024;SDS011;22890;51.820;8.682;2023-06-04T13:39:19;1.20;;;1.00;;
11024;SDS011;22890;51.820;8.682;2023-06-04T13:41:46;0.87;;;0.80;;
11024;SDS011;22890;51.820;8.682;2023-06-04T13:44:13;3.13;;;1.07;;
11024;SDS011;22890;51.820;8.682;2023-06-04T13:46:41;2.37;;;1.37;;
11024;SDS011;22890;51.820;8.682;2023-06-04T13:49:08;0.83;;;0.83;;
11024;SDS011;22890;51.820;8.682;2023-06-04T13:51:35;2.97;;;1.23;;
11024;SDS011;22890;51.820;8.682;2023-06-04T13:54:03;2.60;;;1.10;;
11024;SDS011;22890;51.820;8.682;2023-06-04T13:56:30;3.03;;;1.13;;
11024;SDS011;22890;51.820;8.682;2023-06-04T13:58:57;3.20;;;1.10;;
11024;SDS011;22890;51.820;8.682;2023-06-04T14:01:24;2.77;;;1.10;;
11024;SDS011;22890;51.820;8.682;2023-06-04T14:03:52;1.57;;;0.90;;
11024;SDS011;22890;51.820;8.682;2023-06-04T14:06:19;2.93;;;1.27;;
11024;SDS011;22890;51.820;8.682;2023-06-04T14:08:46;1.27;;;1.10;;
11024;SDS011;22890;51.820;8.682;2023-06-04T14:11:13;1.80;;;0.90;;
11024;SDS011;22890;51.820;8.682;2023-06-04T14:13:41;1.67;;;1.10;;
11024;SDS011;22890;51.820;8.682;2023-06-04T14:16:11;3.07;;;1.00;;
11024;SDS011;22890;51.820;8.682;2023-06-04T14:18:38;1.03;;;0.93;;
11024;SDS011;22890;51.820;8.682;2023-06-04T14:21:05;1.43;;;0.97;;
11024;SDS011;22890;51.820;8.682;2023-06-04T14:23:33;1.27;;;0.90;;
11024;SDS011;22890;51.820;8.682;2023-06-04T14:26:00;3.83;;;0.87;;
11024;SDS011;22890;51.820;8.682;2023-06-04T14:28:28;2.57;;;0.97;;
11024;SDS011;22890;51.820;8.682;2023-06-04T14:30:55;1.47;;;1.17;;
11024;SDS011;22890;51.820;8.682;2023-06-04T14:33:24;1.23;;;0.80;;
11024;SDS011;22890;51.820;8.682;2023-06-04T14:35:51;1.23;;;1.13;;
11024;SDS011;22890;51.820;8.682;2023-06-04T14:38:18;2.20;;;0.80;;
11024;SDS011;22890;51.820;8.682;2023-06-04T14:40:46;2.30;;;1.10;;
11024;SDS011;22890;51.820;8.682;2023-06-04T14:43:13;2.03;;;0.97;;
11024;SDS011;22890;51.820;8.682;2023-06-04T14:45:41;2.03;;;1.00;;
11024;SDS011;22890;51.820;8.682;2023-06-04T14:48:08;2.57;;;0.90;;
11024;SDS011;22890;51.820;8.682;2023-06-04T14:50:41;1.67;;;0.90;;
11024;SDS011;22890;51.820;8.682;2023-06-04T14:53:09;2.10;;;1.27;;
11024;SDS011;22890;51.820;8.682;2023-06-04T14:55:36;1.50;;;1.00;;
11024;SDS011;22890;51.820;8.682;2023-06-04T14:58:03;1.73;;;0.90;;